sensor_id;sensor_type;location;lat;lon;timestamp;P1;durP1;ratioP1;P2;durP2;ratioP2
19312;SDS011;9791;50.820;4.406;2023-05-10T00:02:12;9.45;;;6.10;;
19312;SDS011;9791;50.820;4.406;2023-05-10T00:04:40;10.40;;;5.95;;
19312;SDS011;9791;50.820;4.406;2023-05-10T00:07:06;10.70;;;5.55;;
19312;SDS011;9791;50.820;4.406;2023-05-10T00:09:32;9.55;;;5.70;;
19312;SDS011;9791;50.820;4.406;2023-05-10T00:11:58;11.13;;;5.72;;
19312;SDS011;9791;50.820;4.406;2023-05-10T00:14:24;9.48;;;5.57;;
19312;SDS011;9791;50.820;4.406;2023-05-10T00:16:50;10.63;;;5.78;;
19312;SDS011;9791;50.820;4.406;2023-05-10T00:19:16;9.90;;;5.70;;
19312;SDS011;9791;50.820;4.406;2023-05-10T00:21:42;11.90;;;6.25;;
19312;SDS011;9791;50.820;4.406;2023-05-10T00:24:08;13.52;;;5.80;;
19312;SDS011;9791;50.820;4.406;2023-05-10T00:26:34;10.77;;;5.95;;
19312;SDS011;9791;50.820;4.406;2023-05-10T00:29:00;12.30;;;6.13;;
19312;SDS011;9791;50.820;4.406;2023-05-10T00:31:26;9.88;;;6.20;;
19312;SDS011;9791;50.820;4.406;2023-05-10T00:33:53;12.70;;;6.30;;
19312;SDS011;9791;50.820;4.406;2023-05-10T00:36:19;12.82;;;6.15;;
19312;SDS011;9791;50.820;4.406;2023-05-10T00:38:45;13.63;;;5.82;;
19312;SDS011;9791;50.820;4.406;2023-05-10T00:41:11;11.52;;;6.35;;
19312;SDS011;9791;50.820;4.406;2023-05-10T00:43:37;14.82;;;6.30;;
19312;SDS011;9791;50.820;4.406;2023-05-10T00:46:04;13.55;;;5.75;;
19312;SDS011;9791;50.820;4.406;2023-05-10T00:48:30;9.45;;;6.13;;
19312;SDS011;9791;50.820;4.406;2023-05-10T00:50:57;11.48;;;6.63;;
19312;SDS011;9791;50.820;4.406;2023-05-10T00:53:23;10.45;;;5.93;;
19312;SDS011;9791;50.820;4.406;2023-05-10T00:55:49;12.07;;;6.53;;
19312;SDS011;9791;50.820;4.406;2023-05-10T00:58:16;10.93;;;6.45;;
19312;SDS011;9791;50.820;4.406;2023-05-10T01:00:42;12.18;;;6.88;;
19312;SDS011;9791;50.820;4.406;2023-05-10T01:03:09;9.25;;;6.15;;
19312;SDS011;9791;50.820;4.406;2023-05-10T01:05:37;14.80;;;7.03;;
19312;SDS011;9791;50.820;4.406;2023-05-10T01:08:03;8.73;;;6.22;;
19312;SDS011;9791;50.820;4.406;2023-05-10T01:10:30;12.40;;;7.00;;
19312;SDS011;9791;50.820;4.406;2023-05-10T01:12:56;8.57;;;6.00;;
19312;SDS011;9791;50.820;4.406;2023-05-10T01:15:22;12.27;;;6.70;;
19312;SDS011;9791;50.820;4.406;2023-05-10T01:17:48;14.25;;;6.60;;
19312;SDS011;9791;50.820;4.406;2023-05-10T01:20:15;12.07;;;6.95;;
19312;SDS011;9791;50.820;4.406;2023-05-10T01:25:11;11.80;;;7.35;;
19312;SDS011;9791;50.820;4.406;2023-05-10T01:32:36;12.05;;;7.70;;
19312;SDS011;9791;50.820;4.406;2023-05-10T01:35:14;13.90;;;7.45;;
19312;SDS011;9791;50.820;4.406;2023-05-10T01:37:42;13.95;;;7.40;;
19312;SDS011;9791;50.820;4.406;2023-05-10T01:42:46;16.38;;;7.82;;
19312;SDS011;9791;50.820;4.406;2023-05-10T01:48:05;11.23;;;7.80;;
19312;SDS011;9791;50.820;4.406;2023-05-10T01:50:32;15.25;;;8.02;;
19312;SDS011;9791;50.820;4.406;2023-05-10T01:52:59;18.98;;;8.20;;
19312;SDS011;9791;50.820;4.406;2023-05-10T01:55:28;11.60;;;7.95;;
19312;SDS011;9791;50.820;4.406;2023-05-10T01:58:02;14.30;;;8.80;;
19312;SDS011;9791;50.820;4.406;2023-05-10T02:00:30;12.90;;;7.88;;
19312;SDS011;9791;50.820;4.406;2023-05-10T02:02:56;14.25;;;8.43;;
19312;SDS011;9791;50.820;4.406;2023-05-10T02:05:22;13.57;;;8.10;;
19312;SDS011;9791;50.820;4.406;2023-05-10T02:07:50;12.07;;;7.97;;
19312;SDS011;9791;50.820;4.406;2023-05-10T02:10:16;14.05;;;9.18;;
19312;SDS011;9791;50.820;4.406;2023-05-10T02:12:44;14.85;;;8.30;;
19312;SDS011;9791;50.820;4.406;2023-05-10T02:15:14;14.20;;;9.07;;
19312;SDS011;9791;50.820;4.406;2023-05-10T02:17:40;15.05;;;8.13;;
19312;SDS011;9791;50.820;4.406;2023-05-10T02:20:07;12.00;;;8.70;;
19312;SDS011;9791;50.820;4.406;2023-05-10T02:22:34;11.27;;;7.32;;
19312;SDS011;9791;50.820;4.406;2023-05-10T02:25:01;15.00;;;8.73;;
19312;SDS011;9791;50.820;4.406;2023-05-10T02:27:28;12.63;;;7.90;;
19312;SDS011;9791;50.820;4.406;2023-05-10T02:29:54;12.38;;;7.93;;
19312;SDS011;9791;50.820;4.406;2023-05-10T02:32:22;13.68;;;7.95;;
19312;SDS011;9791;50.820;4.406;2023-05-10T02:34:49;13.63;;;7.93;;
19312;SDS011;9791;50.820;4.406;2023-05-10T02:37:18;13.60;;;7.85;;
19312;SDS011;9791;50.820;4.406;2023-05-10T02:39:45;13.25;;;6.93;;
19312;SDS011;9791;50.820;4.406;2023-05-10T02:42:14;13.75;;;7.20;;
19312;SDS011;9791;50.820;4.406;2023-05-10T02:44:41;12.35;;;7.22;;
19312;SDS011;9791;50.820;4.406;2023-05-10T02:47:08;12.93;;;7.28;;
19312;SDS011;9791;50.820;4.406;2023-05-10T02:49:34;14.50;;;6.82;;
19312;SDS011;9791;50.820;4.406;2023-05-10T02:52:01;12.07;;;7.20;;
19312;SDS011;9791;50.820;4.406;2023-05-10T02:54:29;15.55;;;8.05;;
19312;SDS011;9791;50.820;4.406;2023-05-10T02:56:59;14.13;;;7.32;;
19312;SDS011;9791;50.820;4.406;2023-05-10T02:59:26;10.25;;;6.40;;
19312;SDS011;9791;50.820;4.406;2023-05-10T03:01:52;12.15;;;7.38;;
19312;SDS011;9791;50.820;4.406;2023-05-10T03:04:18;12.35;;;6.95;;
19312;SDS011;9791;50.820;4.406;2023-05-10T03:06:44;15.05;;;7.13;;
19312;SDS011;9791;50.820;4.406;2023-05-10T03:09:11;10.82;;;6.90;;
19312;SDS011;9791;50.820;4.406;2023-05-10T03:16:58;13.52;;;8.07;;
19312;SDS011;9791;50.820;4.406;2023-05-10T03:22:11;17.08;;;7.63;;
19312;SDS011;9791;50.820;4.406;2023-05-10T03:24:39;14.50;;;8.25;;
19312;SDS011;9791;50.820;4.406;2023-05-10T03:27:06;13.95;;;9.25;;
19312;SDS011;9791;50.820;4.406;2023-05-10T03:29:33;14.45;;;7.95;;
19312;SDS011;9791;50.820;4.406;2023-05-10T03:31:59;17.88;;;9.75;;
19312;SDS011;9791;50.820;4.406;2023-05-10T03:34:26;18.40;;;10.18;;
19312;SDS011;9791;50.820;4.406;2023-05-10T03:36:52;16.88;;;9.55;;
19312;SDS011;9791;50.820;4.406;2023-05-10T03:39:18;16.92;;;9.18;;
19312;SDS011;9791;50.820;4.406;2023-05-10T03:41:45;14.15;;;9.45;;
19312;SDS011;9791;50.820;4.406;2023-05-10T03:44:11;15.25;;;9.15;;
19312;SDS011;9791;50.820;4.406;2023-05-10T03:46:37;15.48;;;9.20;;
19312;SDS011;9791;50.820;4.406;2023-05-10T03:49:03;17.40;;;10.10;;
19312;SDS011;9791;50.820;4.406;2023-05-10T03:51:29;15.25;;;10.30;;
19312;SDS011;9791;50.820;4.406;2023-05-10T03:53:56;16.02;;;9.60;;
19312;SDS011;9791;50.820;4.406;2023-05-10T03:56:22;17.65;;;10.20;;
19312;SDS011;9791;50.820;4.406;2023-05-10T03:58:48;17.48;;;10.00;;
19312;SDS011;9791;50.820;4.406;2023-05-10T04:01:14;20.10;;;10.50;;
19312;SDS011;9791;50.820;4.406;2023-05-10T04:03:40;20.80;;;12.13;;
19312;SDS011;9791;50.820;4.406;2023-05-10T04:06:06;20.30;;;11.52;;
19312;SDS011;9791;50.820;4.406;2023-05-10T04:08:34;18.90;;;12.13;;
19312;SDS011;9791;50.820;4.406;2023-05-10T04:11:06;19.17;;;11.88;;
19312;SDS011;9791;50.820;4.406;2023-05-10T04:13:32;18.48;;;11.30;;
19312;SDS011;9791;50.820;4.406;2023-05-10T04:15:58;19.13;;;11.70;;
19312;SDS011;9791;50.820;4.406;2023-05-10T04:18:24;17.88;;;11.52;;
19312;SDS011;9791;50.820;4.406;2023-05-10T04:20:51;17.77;;;11.23;;
19312;SDS011;9791;50.820;4.406;2023-05-10T04:23:17;16.95;;;9.75;;
19312;SDS011;9791;50.820;4.406;2023-05-10T04:25:43;17.88;;;10.68;;
19312;SDS011;9791;50.820;4.406;2023-05-10T04:28:09;17.40;;;10.70;;
19312;SDS011;9791;50.820;4.406;2023-05-10T04:30:35;19.92;;;11.18;;
19312;SDS011;9791;50.820;4.406;2023-05-10T04:33:01;18.60;;;11.38;;
19312;SDS011;9791;50.820;4.406;2023-05-10T04:35:27;19.10;;;11.77;;
19312;SDS011;9791;50.820;4.406;2023-05-10T04:37:53;17.40;;;10.88;;
19312;SDS011;9791;50.820;4.406;2023-05-10T04:40:20;20.60;;;11.75;;
19312;SDS011;9791;50.820;4.406;2023-05-10T04:42:46;17.17;;;11.32;;
19312;SDS011;9791;50.820;4.406;2023-05-10T04:45:12;18.73;;;11.43;;
19312;SDS011;9791;50.820;4.406;2023-05-10T04:47:41;14.23;;;9.80;;
19312;SDS011;9791;50.820;4.406;2023-05-10T04:50:07;17.38;;;10.95;;
19312;SDS011;9791;50.820;4.406;2023-05-10T04:52:33;20.80;;;11.73;;
19312;SDS011;9791;50.820;4.406;2023-05-10T04:54:59;19.70;;;11.10;;
19312;SDS011;9791;50.820;4.406;2023-05-10T04:57:26;17.88;;;12.15;;
19312;SDS011;9791;50.820;4.406;2023-05-10T04:59:52;17.67;;;11.40;;
19312;SDS011;9791;50.820;4.406;2023-05-10T05:02:18;16.80;;;11.57;;
19312;SDS011;9791;50.820;4.406;2023-05-10T05:04:44;18.52;;;11.60;;
19312;SDS011;9791;50.820;4.406;2023-05-10T05:07:10;19.15;;;11.43;;
19312;SDS011;9791;50.820;4.406;2023-05-10T05:09:36;17.67;;;10.88;;
19312;SDS011;9791;50.820;4.406;2023-05-10T05:12:02;13.60;;;8.43;;
19312;SDS011;9791;50.820;4.406;2023-05-10T05:14:28;14.85;;;9.35;;
19312;SDS011;9791;50.820;4.406;2023-05-10T05:16:54;13.98;;;8.13;;
19312;SDS011;9791;50.820;4.406;2023-05-10T05:19:20;11.25;;;6.60;;
19312;SDS011;9791;50.820;4.406;2023-05-10T05:21:47;10.43;;;5.72;;
19312;SDS011;9791;50.820;4.406;2023-05-10T05:24:13;9.15;;;6.05;;
19312;SDS011;9791;50.820;4.406;2023-05-10T05:26:39;13.75;;;6.30;;
19312;SDS011;9791;50.820;4.406;2023-05-10T05:29:05;10.30;;;6.07;;
19312;SDS011;9791;50.820;4.406;2023-05-10T05:31:31;13.82;;;6.13;;
19312;SDS011;9791;50.820;4.406;2023-05-10T05:33:57;9.00;;;5.63;;
19312;SDS011;9791;50.820;4.406;2023-05-10T05:36:23;12.85;;;7.85;;
19312;SDS011;9791;50.820;4.406;2023-05-10T05:38:49;10.75;;;6.30;;
19312;SDS011;9791;50.820;4.406;2023-05-10T05:41:15;14.05;;;6.75;;
19312;SDS011;9791;50.820;4.406;2023-05-10T05:43:41;11.63;;;7.10;;
19312;SDS011;9791;50.820;4.406;2023-05-10T05:46:08;11.32;;;6.40;;
19312;SDS011;9791;50.820;4.406;2023-05-10T05:48:35;11.13;;;7.28;;
19312;SDS011;9791;50.820;4.406;2023-05-10T05:51:01;9.88;;;6.55;;
19312;SDS011;9791;50.820;4.406;2023-05-10T05:53:27;8.73;;;6.10;;
19312;SDS011;9791;50.820;4.406;2023-05-10T05:55:54;13.35;;;7.80;;
19312;SDS011;9791;50.820;4.406;2023-05-10T05:58:20;13.73;;;7.00;;
19312;SDS011;9791;50.820;4.406;2023-05-10T06:00:46;8.45;;;5.72;;
19312;SDS011;9791;50.820;4.406;2023-05-10T06:03:12;5.78;;;3.92;;
19312;SDS011;9791;50.820;4.406;2023-05-10T06:05:39;9.57;;;3.88;;
19312;SDS011;9791;50.820;4.406;2023-05-10T06:08:05;8.20;;;3.85;;
19312;SDS011;9791;50.820;4.406;2023-05-10T06:10:31;8.77;;;4.10;;
19312;SDS011;9791;50.820;4.406;2023-05-10T06:12:57;7.13;;;3.30;;
19312;SDS011;9791;50.820;4.406;2023-05-10T06:15:23;10.32;;;4.20;;
19312;SDS011;9791;50.820;4.406;2023-05-10T06:17:49;8.20;;;4.00;;
19312;SDS011;9791;50.820;4.406;2023-05-10T06:20:15;6.53;;;3.30;;
19312;SDS011;9791;50.820;4.406;2023-05-10T06:22:41;7.72;;;3.63;;
19312;SDS011;9791;50.820;4.406;2023-05-10T06:25:07;7.45;;;3.92;;
19312;SDS011;9791;50.820;4.406;2023-05-10T06:27:34;6.53;;;4.15;;
19312;SDS011;9791;50.820;4.406;2023-05-10T06:30:00;8.18;;;3.60;;
19312;SDS011;9791;50.820;4.406;2023-05-10T06:32:27;6.63;;;3.70;;
19312;SDS011;9791;50.820;4.406;2023-05-10T06:34:53;9.23;;;4.22;;
19312;SDS011;9791;50.820;4.406;2023-05-10T06:37:19;8.75;;;3.90;;
19312;SDS011;9791;50.820;4.406;2023-05-10T06:39:45;7.60;;;3.72;;
19312;SDS011;9791;50.820;4.406;2023-05-10T06:42:11;8.98;;;3.70;;
19312;SDS011;9791;50.820;4.406;2023-05-10T06:44:37;9.73;;;3.88;;
19312;SDS011;9791;50.820;4.406;2023-05-10T06:47:03;9.05;;;3.72;;
19312;SDS011;9791;50.820;4.406;2023-05-10T06:49:29;7.22;;;2.90;;
19312;SDS011;9791;50.820;4.406;2023-05-10T06:51:55;5.90;;;3.50;;
19312;SDS011;9791;50.820;4.406;2023-05-10T06:54:21;6.57;;;2.60;;
19312;SDS011;9791;50.820;4.406;2023-05-10T06:56:48;7.53;;;3.03;;
19312;SDS011;9791;50.820;4.406;2023-05-10T06:59:14;7.78;;;2.92;;
19312;SDS011;9791;50.820;4.406;2023-05-10T07:01:41;5.50;;;2.90;;
19312;SDS011;9791;50.820;4.406;2023-05-10T07:04:07;6.35;;;3.33;;
19312;SDS011;9791;50.820;4.406;2023-05-10T07:06:33;6.43;;;3.28;;
19312;SDS011;9791;50.820;4.406;2023-05-10T07:09:00;11.40;;;3.65;;
19312;SDS011;9791;50.820;4.406;2023-05-10T07:11:27;6.80;;;3.53;;
19312;SDS011;9791;50.820;4.406;2023-05-10T07:13:53;8.07;;;3.58;;
19312;SDS011;9791;50.820;4.406;2023-05-10T07:16:21;7.10;;;3.67;;
19312;SDS011;9791;50.820;4.406;2023-05-10T07:18:48;7.57;;;3.40;;
19312;SDS011;9791;50.820;4.406;2023-05-10T07:21:15;6.85;;;3.72;;
19312;SDS011;9791;50.820;4.406;2023-05-10T07:23:41;9.48;;;4.63;;
19312;SDS011;9791;50.820;4.406;2023-05-10T07:26:07;10.13;;;4.75;;
19312;SDS011;9791;50.820;4.406;2023-05-10T07:28:34;9.50;;;4.10;;
19312;SDS011;9791;50.820;4.406;2023-05-10T07:31:02;10.38;;;5.22;;
19312;SDS011;9791;50.820;4.406;2023-05-10T07:33:28;10.60;;;4.30;;
19312;SDS011;9791;50.820;4.406;2023-05-10T07:35:54;10.40;;;5.00;;
19312;SDS011;9791;50.820;4.406;2023-05-10T07:38:20;12.55;;;4.60;;
19312;SDS011;9791;50.820;4.406;2023-05-10T07:40:46;12.07;;;5.22;;
19312;SDS011;9791;50.820;4.406;2023-05-10T07:43:12;12.07;;;5.13;;
19312;SDS011;9791;50.820;4.406;2023-05-10T07:45:38;10.13;;;5.10;;
19312;SDS011;9791;50.820;4.406;2023-05-10T07:48:04;10.88;;;5.72;;
19312;SDS011;9791;50.820;4.406;2023-05-10T07:50:30;10.35;;;5.30;;
19312;SDS011;9791;50.820;4.406;2023-05-10T07:52:56;11.48;;;4.88;;
19312;SDS011;9791;50.820;4.406;2023-05-10T07:55:23;9.02;;;5.07;;
19312;SDS011;9791;50.820;4.406;2023-05-10T07:57:49;9.02;;;4.80;;
19312;SDS011;9791;50.820;4.406;2023-05-10T08:00:18;9.77;;;5.05;;
19312;SDS011;9791;50.820;4.406;2023-05-10T08:02:44;9.93;;;4.70;;
19312;SDS011;9791;50.820;4.406;2023-05-10T08:05:12;7.18;;;4.40;;
19312;SDS011;9791;50.820;4.406;2023-05-10T08:07:38;10.23;;;4.32;;
19312;SDS011;9791;50.820;4.406;2023-05-10T08:10:04;7.30;;;4.18;;
19312;SDS011;9791;50.820;4.406;2023-05-10T08:12:30;7.70;;;3.83;;
19312;SDS011;9791;50.820;4.406;2023-05-10T08:14:56;6.40;;;4.00;;
19312;SDS011;9791;50.820;4.406;2023-05-10T08:17:22;5.32;;;3.53;;
19312;SDS011;9791;50.820;4.406;2023-05-10T08:19:49;6.85;;;3.60;;
19312;SDS011;9791;50.820;4.406;2023-05-10T08:22:17;7.82;;;3.60;;
19312;SDS011;9791;50.820;4.406;2023-05-10T08:24:43;6.55;;;3.20;;
19312;SDS011;9791;50.820;4.406;2023-05-10T08:27:10;8.25;;;2.90;;
19312;SDS011;9791;50.820;4.406;2023-05-10T08:29:37;7.53;;;3.60;;
19312;SDS011;9791;50.820;4.406;2023-05-10T08:32:03;6.07;;;3.40;;
19312;SDS011;9791;50.820;4.406;2023-05-10T08:34:29;7.03;;;3.72;;
19312;SDS011;9791;50.820;4.406;2023-05-10T08:36:56;5.85;;;3.40;;
19312;SDS011;9791;50.820;4.406;2023-05-10T08:39:22;6.65;;;3.70;;
19312;SDS011;9791;50.820;4.406;2023-05-10T08:41:48;5.95;;;2.70;;
19312;SDS011;9791;50.820;4.406;2023-05-10T08:44:16;6.25;;;2.83;;
19312;SDS011;9791;50.820;4.406;2023-05-10T08:46:45;5.43;;;2.50;;
19312;SDS011;9791;50.820;4.406;2023-05-10T08:49:13;6.05;;;3.30;;
19312;SDS011;9791;50.820;4.406;2023-05-10T08:51:40;6.78;;;3.47;;
19312;SDS011;9791;50.820;4.406;2023-05-10T08:54:08;7.10;;;3.33;;
19312;SDS011;9791;50.820;4.406;2023-05-10T08:56:35;6.40;;;3.30;;
19312;SDS011;9791;50.820;4.406;2023-05-10T08:59:01;5.30;;;3.35;;
19312;SDS011;9791;50.820;4.406;2023-05-10T09:01:27;5.80;;;3.50;;
19312;SDS011;9791;50.820;4.406;2023-05-10T09:03:54;5.88;;;3.28;;
19312;SDS011;9791;50.820;4.406;2023-05-10T09:06:20;6.45;;;3.42;;
19312;SDS011;9791;50.820;4.406;2023-05-10T09:08:47;5.65;;;3.20;;
19312;SDS011;9791;50.820;4.406;2023-05-10T09:11:13;8.13;;;3.45;;
19312;SDS011;9791;50.820;4.406;2023-05-10T09:13:39;5.93;;;3.05;;
19312;SDS011;9791;50.820;4.406;2023-05-10T09:16:05;7.90;;;3.75;;
19312;SDS011;9791;50.820;4.406;2023-05-10T09:18:32;7.65;;;3.70;;
19312;SDS011;9791;50.820;4.406;2023-05-10T09:20:58;6.70;;;3.97;;
19312;SDS011;9791;50.820;4.406;2023-05-10T09:23:24;6.30;;;3.85;;
19312;SDS011;9791;50.820;4.406;2023-05-10T09:26:03;6.00;;;3.55;;
19312;SDS011;9791;50.820;4.406;2023-05-10T09:31:14;5.90;;;3.67;;
19312;SDS011;9791;50.820;4.406;2023-05-10T09:33:47;5.38;;;3.10;;
19312;SDS011;9791;50.820;4.406;2023-05-10T09:36:13;6.03;;;3.30;;
19312;SDS011;9791;50.820;4.406;2023-05-10T09:38:49;5.90;;;3.05;;
19312;SDS011;9791;50.820;4.406;2023-05-10T09:41:22;6.07;;;3.40;;
19312;SDS011;9791;50.820;4.406;2023-05-10T09:43:50;4.55;;;2.78;;
19312;SDS011;9791;50.820;4.406;2023-05-10T09:46:20;4.30;;;2.65;;
19312;SDS011;9791;50.820;4.406;2023-05-10T09:48:47;4.80;;;2.63;;
19312;SDS011;9791;50.820;4.406;2023-05-10T09:51:23;4.97;;;2.80;;
19312;SDS011;9791;50.820;4.406;2023-05-10T09:54:08;4.18;;;2.20;;
19312;SDS011;9791;50.820;4.406;2023-05-10T09:56:35;4.00;;;2.25;;
19312;SDS011;9791;50.820;4.406;2023-05-10T09:59:03;4.00;;;2.30;;
19312;SDS011;9791;50.820;4.406;2023-05-10T10:01:30;4.93;;;2.30;;
19312;SDS011;9791;50.820;4.406;2023-05-10T10:03:56;3.97;;;2.22;;
19312;SDS011;9791;50.820;4.406;2023-05-10T10:06:23;3.83;;;2.03;;
19312;SDS011;9791;50.820;4.406;2023-05-10T10:08:50;5.05;;;2.10;;
19312;SDS011;9791;50.820;4.406;2023-05-10T10:11:16;4.07;;;2.10;;
19312;SDS011;9791;50.820;4.406;2023-05-10T10:13:44;4.65;;;2.22;;
19312;SDS011;9791;50.820;4.406;2023-05-10T10:16:10;4.10;;;2.40;;
19312;SDS011;9791;50.820;4.406;2023-05-10T10:18:36;7.00;;;2.20;;
19312;SDS011;9791;50.820;4.406;2023-05-10T10:21:06;3.78;;;2.10;;
19312;SDS011;9791;50.820;4.406;2023-05-10T10:23:34;3.90;;;2.30;;
19312;SDS011;9791;50.820;4.406;2023-05-10T10:26:01;4.10;;;2.10;;
19312;SDS011;9791;50.820;4.406;2023-05-10T10:31:13;5.35;;;2.00;;
19312;SDS011;9791;50.820;4.406;2023-05-10T10:33:50;6.57;;;2.45;;
19312;SDS011;9791;50.820;4.406;2023-05-10T10:36:17;3.40;;;1.88;;
19312;SDS011;9791;50.820;4.406;2023-05-10T10:39:02;3.88;;;1.90;;
19312;SDS011;9791;50.820;4.406;2023-05-10T10:41:34;4.47;;;2.13;;
19312;SDS011;9791;50.820;4.406;2023-05-10T10:52:17;4.90;;;2.28;;
19312;SDS011;9791;50.820;4.406;2023-05-10T10:54:53;4.03;;;2.33;;
19312;SDS011;9791;50.820;4.406;2023-05-10T10:57:20;4.28;;;2.13;;
19312;SDS011;9791;50.820;4.406;2023-05-10T10:59:47;4.03;;;2.13;;
19312;SDS011;9791;50.820;4.406;2023-05-10T11:04:58;4.07;;;2.40;;
19312;SDS011;9791;50.820;4.406;2023-05-10T11:07:24;5.22;;;2.67;;
19312;SDS011;9791;50.820;4.406;2023-05-10T11:09:50;4.53;;;2.17;;
19312;SDS011;9791;50.820;4.406;2023-05-10T11:12:16;4.57;;;2.38;;
19312;SDS011;9791;50.820;4.406;2023-05-10T11:14:42;4.13;;;2.38;;
19312;SDS011;9791;50.820;4.406;2023-05-10T11:17:24;4.97;;;2.60;;
19312;SDS011;9791;50.820;4.406;2023-05-10T11:20:06;4.38;;;2.17;;
19312;SDS011;9791;50.820;4.406;2023-05-10T11:22:48;4.70;;;2.72;;
19312;SDS011;9791;50.820;4.406;2023-05-10T11:25:15;4.70;;;2.45;;
19312;SDS011;9791;50.820;4.406;2023-05-10T11:27:41;5.03;;;2.00;;
19312;SDS011;9791;50.820;4.406;2023-05-10T11:30:09;5.20;;;2.60;;
19312;SDS011;9791;50.820;4.406;2023-05-10T11:32:37;5.70;;;3.03;;
19312;SDS011;9791;50.820;4.406;2023-05-10T11:35:09;4.75;;;2.38;;
19312;SDS011;9791;50.820;4.406;2023-05-10T11:37:36;4.65;;;2.28;;
19312;SDS011;9791;50.820;4.406;2023-05-10T11:40:04;4.68;;;2.08;;
19312;SDS011;9791;50.820;4.406;2023-05-10T11:42:32;3.17;;;1.90;;
19312;SDS011;9791;50.820;4.406;2023-05-10T11:44:59;2.85;;;1.58;;
19312;SDS011;9791;50.820;4.406;2023-05-10T11:47:26;4.30;;;2.17;;
19312;SDS011;9791;50.820;4.406;2023-05-10T11:49:52;4.22;;;2.10;;
19312;SDS011;9791;50.820;4.406;2023-05-10T11:52:18;3.70;;;2.05;;
19312;SDS011;9791;50.820;4.406;2023-05-10T11:54:54;3.80;;;2.00;;
19312;SDS011;9791;50.820;4.406;2023-05-10T11:57:20;3.95;;;1.85;;
19312;SDS011;9791;50.820;4.406;2023-05-10T11:59:47;4.47;;;2.05;;
19312;SDS011;9791;50.820;4.406;2023-05-10T12:02:13;4.15;;;2.05;;
19312;SDS011;9791;50.820;4.406;2023-05-10T12:04:40;7.18;;;2.40;;
19312;SDS011;9791;50.820;4.406;2023-05-10T12:07:06;4.82;;;2.08;;
19312;SDS011;9791;50.820;4.406;2023-05-10T12:09:32;4.55;;;2.28;;
19312;SDS011;9791;50.820;4.406;2023-05-10T12:11:58;4.60;;;2.50;;
19312;SDS011;9791;50.820;4.406;2023-05-10T12:14:24;6.40;;;2.30;;
19312;SDS011;9791;50.820;4.406;2023-05-10T12:16:50;3.92;;;2.03;;
19312;SDS011;9791;50.820;4.406;2023-05-10T12:19:20;4.47;;;2.13;;
19312;SDS011;9791;50.820;4.406;2023-05-10T12:21:46;7.18;;;2.47;;
19312;SDS011;9791;50.820;4.406;2023-05-10T12:24:14;4.63;;;2.40;;
19312;SDS011;9791;50.820;4.406;2023-05-10T12:26:42;7.40;;;2.78;;
19312;SDS011;9791;50.820;4.406;2023-05-10T12:29:16;4.53;;;2.63;;
19312;SDS011;9791;50.820;4.406;2023-05-10T12:31:49;5.20;;;2.95;;
19312;SDS011;9791;50.820;4.406;2023-05-10T12:34:30;6.40;;;2.55;;
19312;SDS011;9791;50.820;4.406;2023-05-10T12:36:56;5.30;;;2.22;;
19312;SDS011;9791;50.820;4.406;2023-05-10T12:39:23;4.00;;;2.40;;
19312;SDS011;9791;50.820;4.406;2023-05-10T12:41:50;4.95;;;2.58;;
19312;SDS011;9791;50.820;4.406;2023-05-10T12:44:16;5.28;;;2.97;;
19312;SDS011;9791;50.820;4.406;2023-05-10T12:46:42;4.97;;;2.90;;
19312;SDS011;9791;50.820;4.406;2023-05-10T12:49:08;5.70;;;3.25;;
19312;SDS011;9791;50.820;4.406;2023-05-10T12:51:34;5.05;;;2.97;;
19312;SDS011;9791;50.820;4.406;2023-05-10T12:54:01;8.00;;;3.60;;
19312;SDS011;9791;50.820;4.406;2023-05-10T12:56:27;6.50;;;3.20;;
19312;SDS011;9791;50.820;4.406;2023-05-10T12:58:55;6.22;;;3.50;;
19312;SDS011;9791;50.820;4.406;2023-05-10T13:01:21;5.38;;;3.10;;
19312;SDS011;9791;50.820;4.406;2023-05-10T13:03:47;6.63;;;3.08;;
19312;SDS011;9791;50.820;4.406;2023-05-10T13:06:13;4.82;;;2.80;;
19312;SDS011;9791;50.820;4.406;2023-05-10T13:08:39;4.63;;;2.95;;
19312;SDS011;9791;50.820;4.406;2023-05-10T13:11:05;4.95;;;2.70;;
19312;SDS011;9791;50.820;4.406;2023-05-10T13:13:31;5.05;;;2.88;;
19312;SDS011;9791;50.820;4.406;2023-05-10T13:15:57;5.18;;;2.85;;
19312;SDS011;9791;50.820;4.406;2023-05-10T13:18:23;5.70;;;3.00;;
19312;SDS011;9791;50.820;4.406;2023-05-10T13:20:51;3.90;;;2.28;;
19312;SDS011;9791;50.820;4.406;2023-05-10T13:23:17;5.78;;;2.40;;
19312;SDS011;9791;50.820;4.406;2023-05-10T13:25:43;3.47;;;1.75;;
19312;SDS011;9791;50.820;4.406;2023-05-10T13:28:09;4.20;;;1.95;;
19312;SDS011;9791;50.820;4.406;2023-05-10T13:30:35;3.92;;;1.77;;
19312;SDS011;9791;50.820;4.406;2023-05-10T13:33:01;5.22;;;1.92;;
19312;SDS011;9791;50.820;4.406;2023-05-10T13:35:27;3.33;;;1.60;;
19312;SDS011;9791;50.820;4.406;2023-05-10T13:37:53;4.28;;;1.95;;
19312;SDS011;9791;50.820;4.406;2023-05-10T13:40:21;5.07;;;2.28;;
19312;SDS011;9791;50.820;4.406;2023-05-10T13:42:47;4.93;;;2.30;;
19312;SDS011;9791;50.820;4.406;2023-05-10T13:45:13;4.55;;;2.30;;
19312;SDS011;9791;50.820;4.406;2023-05-10T13:47:39;7.63;;;3.85;;
19312;SDS011;9791;50.820;4.406;2023-05-10T13:50:06;6.80;;;3.40;;
19312;SDS011;9791;50.820;4.406;2023-05-10T13:52:32;6.63;;;3.45;;
19312;SDS011;9791;50.820;4.406;2023-05-10T13:54:58;7.40;;;3.63;;
19312;SDS011;9791;50.820;4.406;2023-05-10T13:57:24;6.43;;;3.35;;
19312;SDS011;9791;50.820;4.406;2023-05-10T13:59:51;5.95;;;2.80;;
19312;SDS011;9791;50.820;4.406;2023-05-10T14:02:17;7.13;;;3.15;;
19312;SDS011;9791;50.820;4.406;2023-05-10T14:04:43;6.05;;;2.90;;
19312;SDS011;9791;50.820;4.406;2023-05-10T14:07:09;6.43;;;3.50;;
19312;SDS011;9791;50.820;4.406;2023-05-10T14:09:35;11.45;;;4.78;;
19312;SDS011;9791;50.820;4.406;2023-05-10T14:12:01;7.32;;;4.20;;
19312;SDS011;9791;50.820;4.406;2023-05-10T14:14:27;7.13;;;5.13;;
19312;SDS011;9791;50.820;4.406;2023-05-10T14:16:54;7.55;;;4.90;;
19312;SDS011;9791;50.820;4.406;2023-05-10T14:19:20;9.20;;;4.68;;
19312;SDS011;9791;50.820;4.406;2023-05-10T14:21:46;7.50;;;4.72;;
19312;SDS011;9791;50.820;4.406;2023-05-10T14:24:12;9.05;;;5.10;;
19312;SDS011;9791;50.820;4.406;2023-05-10T14:26:38;10.75;;;5.57;;
19312;SDS011;9791;50.820;4.406;2023-05-10T14:29:04;7.75;;;5.32;;
19312;SDS011;9791;50.820;4.406;2023-05-10T14:31:31;8.05;;;5.13;;
19312;SDS011;9791;50.820;4.406;2023-05-10T14:33:58;9.25;;;6.28;;
19312;SDS011;9791;50.820;4.406;2023-05-10T14:36:24;10.40;;;6.75;;
19312;SDS011;9791;50.820;4.406;2023-05-10T14:38:50;12.82;;;7.28;;
19312;SDS011;9791;50.820;4.406;2023-05-10T14:41:17;10.43;;;6.35;;
19312;SDS011;9791;50.820;4.406;2023-05-10T14:43:43;8.85;;;5.85;;
19312;SDS011;9791;50.820;4.406;2023-05-10T14:46:09;10.75;;;6.50;;
19312;SDS011;9791;50.820;4.406;2023-05-10T14:48:35;10.88;;;6.72;;
19312;SDS011;9791;50.820;4.406;2023-05-10T14:51:01;10.65;;;5.70;;
19312;SDS011;9791;50.820;4.406;2023-05-10T14:53:29;12.40;;;6.50;;
19312;SDS011;9791;50.820;4.406;2023-05-10T14:55:55;11.10;;;6.13;;
19312;SDS011;9791;50.820;4.406;2023-05-10T14:58:21;13.90;;;6.72;;
19312;SDS011;9791;50.820;4.406;2023-05-10T15:00:47;10.55;;;6.80;;
19312;SDS011;9791;50.820;4.406;2023-05-10T15:03:13;10.52;;;7.10;;
19312;SDS011;9791;50.820;4.406;2023-05-10T15:05:40;12.55;;;7.40;;
19312;SDS011;9791;50.820;4.406;2023-05-10T15:08:06;11.32;;;6.30;;
19312;SDS011;9791;50.820;4.406;2023-05-10T15:10:32;9.32;;;5.88;;
19312;SDS011;9791;50.820;4.406;2023-05-10T15:12:58;8.52;;;5.55;;
19312;SDS011;9791;50.820;4.406;2023-05-10T15:15:24;11.93;;;5.60;;
19312;SDS011;9791;50.820;4.406;2023-05-10T15:17:51;8.15;;;5.07;;
19312;SDS011;9791;50.820;4.406;2023-05-10T15:20:17;11.10;;;5.10;;
19312;SDS011;9791;50.820;4.406;2023-05-10T15:22:43;7.70;;;3.72;;
19312;SDS011;9791;50.820;4.406;2023-05-10T15:25:09;5.25;;;3.10;;
19312;SDS011;9791;50.820;4.406;2023-05-10T15:27:35;6.00;;;2.78;;
19312;SDS011;9791;50.820;4.406;2023-05-10T15:30:01;6.88;;;3.03;;
19312;SDS011;9791;50.820;4.406;2023-05-10T15:32:27;9.43;;;2.70;;